Погода Текирдагна 2 недели

Мармара, Турция

20 июня-02 июля
  • 20июня
    Сегодня
    +22°
    +31°
    Ясно и безоблачно
    ВремяПогодаТемператураВлажностьДавлениеВетер, м/сВероятность осадков
    00:00Ясно и безоблачно+23°C78 %762 мм2.4 м/с2 %
    03:00Ясно и безоблачно+21°C86 %762 мм2.0 м/с2 %
    06:00Ясно и безоблачно+21°C91 %762 мм2.2 м/с2 %
    09:00Ясно и безоблачно+25°C64 %762 мм2.5 м/с2 %
    12:00Ясно и безоблачно+28°C48 %761 мм3.4 м/с2 %
    15:00Ясно и безоблачно+29°C40 %761 мм4.3 м/с2 %
    18:00Ясно и безоблачно+30°C38 %760 мм4.2 м/с2 %
    21:00Ясно и безоблачно+27°C54 %761 мм2.7 м/с2 %
  • 21июня
    Пятница
    +19°
    +30°
    Ясно и безоблачно
    ВремяПогодаТемператураВлажностьДавлениеВетер, м/сВероятность осадков
    00:00Ясно и безоблачно+23°C69 %762 мм2.1 м/с2 %
    03:00Ясно и безоблачно+22°C77 %762 мм2.3 м/с2 %
    06:00Ясно и безоблачно+23°C82 %762 мм3.2 м/с2 %
    09:00Ясно и безоблачно+27°C62 %762 мм3.5 м/с2 %
    12:00Ясно и безоблачно+29°C46 %762 мм4.6 м/с2 %
    15:00Ясно и безоблачно+29°C53 %761 мм5.1 м/с2 %
    18:00Ясно и безоблачно+28°C49 %761 мм4.4 м/с2 %
    21:00Ясно и безоблачно+24°C56 %761 мм3.2 м/с2 %
  • 22июня
    Суббота
    +19°
    +28°
    Ясно и безоблачно
    ВремяПогодаТемператураВлажностьДавлениеВетер, м/сВероятность осадков
    00:00Ясно и безоблачно+22°C84 %761 мм2.8 м/с2 %
    03:00Ясно и безоблачно+21°C87 %760 мм2.3 м/с2 %
    06:00Ясно и безоблачно+20°C91 %760 мм2.5 м/с2 %
    09:00Ясно и безоблачно+24°C66 %760 мм3.2 м/с2 %
    12:00Ясно и безоблачно+26°C49 %759 мм3.9 м/с2 %
    15:00Ясно и безоблачно+28°C39 %758 мм4.6 м/с2 %
    18:00Ясно и безоблачно+27°C40 %758 мм4.3 м/с2 %
    21:00Ясно и безоблачно+24°C61 %758 мм3.0 м/с2 %
  • 23июня
    Воскресенье
    +20°
    +29°
    Ясно и безоблачно
    ВремяПогодаТемператураВлажностьДавлениеВетер, м/сВероятность осадков
    00:00Ясно и безоблачно+21°C79 %759 мм2.3 м/с2 %
    03:00Ясно и безоблачно+20°C81 %758 мм2.0 м/с2 %
    06:00Ясно и безоблачно+20°C84 %757 мм2.4 м/с2 %
    09:00Ясно и безоблачно+25°C66 %758 мм2.9 м/с2 %
    12:00Ясно и безоблачно+27°C46 %758 мм3.8 м/с2 %
    15:00Ясно и безоблачно+29°C41 %757 мм4.6 м/с2 %
    18:00Ясно и безоблачно+28°C48 %757 мм4.2 м/с2 %
    21:00Ясно и безоблачно+24°C70 %758 мм2.6 м/с2 %
Мы используем cookies
Соглашаюсь